Flight Track Log - Related Links

Times and Time Zones

All times are in EDT time to prevent confusion due to time zone crossing. See the BOE5 flight status page for this flight to view local times or setup timezone preferences in your user account.

Time Position Orientation Groundspeed Altitude Reporting Facility
EDT Latitude Longitude Course Direction KTS MPH feet Rate Location/Type
Sat 04:01:43 PM 34.0833 -117.2667 90° East 173 199 2,500  Level Southern California TRACON
Sat 04:02:38 PM 34.0500 -117.3333 239° Southwest 258 297 3,000 1,444 Climbing Southern California TRACON
Sat 04:04:50 PM 33.9069 -117.3814 196° South 266 306 7,000 1,299 Climbing Los Angeles Center
Sat 04:05:52 PM 33.8300 -117.3719 174° South 275 316 7,200 1,597 Climbing Los Angeles Center
Sat 04:06:54 PM 33.7772 -117.3061 134° Southeast 284 327 10,300 2,710 Climbing Los Angeles Center
Sat 04:07:00 PM 33.7000 -117.0886 90° East  Level FlightAware Approximate
Sat 04:07:56 PM 33.7236 -117.2139 125° Southeast 330 380 12,800  Level Los Angeles Center
Sat 04:08:58 PM 33.7072 -117.0894 99° East 380 437 14,800 2,565 Climbing Los Angeles Center
Sat 04:10:00 PM 33.6956 -116.9256 95° East 408 470 18,100 2,710 Climbing Los Angeles Center
Sat 04:11:02 PM 33.6825 -116.7847 96° East 433 498 20,400 2,177 Climbing Los Angeles Center
Sat 04:12:04 PM 33.6703 -116.6344 96° East 450 518 22,600 2,032 Climbing Los Angeles Center
Sat 04:13:06 PM 33.6558 -116.4769 96° East 469 540 24,600 1,210 Climbing Los Angeles Center
Sat 04:14:08 PM 33.6417 -116.3153 96° East 481 554 25,100 1,161 Climbing Los Angeles Center
Sat 04:15:10 PM 33.6422 -116.1206 90° East 488 562 27,000 2,208 Climbing Los Angeles Center
Sat 04:16:13 PM 33.6900 -115.9669 69° East 492 566 29,700 1,392 Climbing Los Angeles Center
Sat 04:17:15 PM 33.7208 -115.7994 77° East 512 589 29,900 387 Climbing Los Angeles Center
Sat 04:18:17 PM 33.7450 -115.6183 81° East 544 626 30,500 532 Climbing Los Angeles Center
Sat 04:19:19 PM 33.7672 -115.4369 82° East 547 629 31,000 242 Climbing Los Angeles Center
Sat 04:20:21 PM 33.7911 -115.2558 81° East 550 633 31,000 -48 Level Los Angeles Center
Sat 04:21:23 PM 33.8194 -115.0369 81° East 553 636 30,900 -48 Descending Los Angeles Center
Sat 04:22:25 PM 33.8431 -114.8544 81° East 553 636 30,900 48 Level Los Angeles Center
Sat 04:23:27 PM 33.8658 -114.6725 81° East 548 631 31,000 48 Climbing Los Angeles Center
Sat 04:24:29 PM 33.8892 -114.4911 81° East 549 632 31,000  Level Los Angeles Center
Sat 04:25:31 PM 33.9108 -114.3089 82° East 550 633 31,000  Level Los Angeles Center
Sat 04:25:47 PM 33.9189 -114.2500 81° East 553 636 31,000  Level Albuquerque Center
Sat 04:26:49 PM 33.9403 -114.0758 82° East 553 636 31,000  Level Albuquerque Center
Sat 04:27:50 PM 33.9608 -113.8933 82° East 552 635 31,000  Level Albuquerque Center
Sat 04:28:52 PM 33.9861 -113.6731 82° East 554 638 31,000  Level Albuquerque Center
Sat 04:29:54 PM 34.0075 -113.4903 82° East 553 636 31,000  Level Albuquerque Center
Sat 04:30:55 PM 34.0275 -113.3056 83° East 556 640 31,000  Level Albuquerque Center
Sat 04:31:57 PM 34.0489 -113.1211 82° East 556 640 31,000  Level Albuquerque Center
Sat 04:32:59 PM 34.0686 -112.9367 83° East 556 640 31,000  Level Albuquerque Center
Sat 04:34:00 PM 34.0897 -112.7497 82° East 561 646 31,000  Level Albuquerque Center
Sat 04:35:02 PM 34.1092 -112.5647 83° East 557 641 31,000  Level Albuquerque Center
Sat 04:36:04 PM 34.1286 -112.3781 83° East 561 646 31,000  Level Albuquerque Center
Sat 04:37:05 PM 34.1522 -112.1500 83° East 567 652 31,000  Level Albuquerque Center
Sat 04:38:07 PM 34.1719 -111.9572 83° East 563 648 31,000  Level Albuquerque Center
Sat 04:39:09 PM 34.1897 -111.7686 83° East 565 650 31,000  Level Albuquerque Center
Sat 04:40:10 PM 34.2094 -111.5750 83° East 569 655 31,000  Level Albuquerque Center
Sat 04:41:12 PM 34.2292 -111.3825 83° East 573 659 31,000  Level Albuquerque Center
Sat 04:42:14 PM 34.2475 -111.1914 83° East 572 658 31,000  Level Albuquerque Center
Sat 04:43:16 PM 34.2653 -111.0000 84° East 573 659 31,000  Level Albuquerque Center
Sat 04:44:17 PM 34.2831 -110.8078 84° East 574 661 31,000  Level Albuquerque Center
Sat 04:45:19 PM 34.3017 -110.6158 83° East 576 663 31,000  Level Albuquerque Center
Sat 04:46:21 PM 34.3217 -110.3917 84° East 574 661 31,000  Level Albuquerque Center
Sat 04:47:22 PM 34.3367 -110.2047 84° East 579 666 31,000  Level Albuquerque Center
Sat 04:48:24 PM 34.3556 -109.9906 84° East 577 664 31,000  Level Albuquerque Center
Sat 04:49:26 PM 34.3717 -109.8044 84° East 579 666 31,000  Level Albuquerque Center
Sat 04:50:28 PM 34.3892 -109.5886 84° East 579 666 31,000  Level Albuquerque Center
Sat 04:51:29 PM 34.4047 -109.4025 84° East 580 667 31,000  Level Albuquerque Center
Sat 04:52:31 PM 34.4189 -109.2175 85° East 580 667 31,000  Level Albuquerque Center
Sat 04:53:33 PM 34.4422 -109.0050 82° East 574 661 31,000 -48 Level Albuquerque Center
Sat 04:54:35 PM 34.4656 -108.8217 81° East 575 662 30,900 -1,220 Descending Albuquerque Center
Sat 04:55:36 PM 34.4925 -108.6103 81° East 573 659 28,500 -2,195 Descending Albuquerque Center
Sat 04:56:38 PM 34.5175 -108.4303 80° East 561 646 26,400 -1,984 Descending Albuquerque Center
Sat 04:57:40 PM 34.5464 -108.2614 78° East 527 606 24,400 -1,984 Descending Albuquerque Center
Sat 04:58:42 PM 34.5747 -108.0983 78° East 503 579 22,300 -1,415 Descending Albuquerque Center
Sat 04:59:43 PM 34.5992 -107.9461 79° East 474 545 21,500 -634 Descending Albuquerque Center
Sat 05:00:45 PM 34.6253 -107.8083 77° East 431 496 21,000 -968 Descending Albuquerque Center
Sat 05:01:47 PM 34.6825 -107.6675 64° Northeast 395 455 19,500 -1,394 Descending Albuquerque Center
Sat 05:02:24 PM 34.7111 -107.6017 62° Northeast 381 438 18,700 -1,258 Descending Albuquerque Center
Sat 05:02:49 PM 34.7317 -107.5567 61° Northeast 379 436 18,200 -1,250 Descending Albuquerque Center
Sat 05:03:12 PM 34.7531 -107.5089 61° Northeast 369 425 17,700 -1,180 Descending Albuquerque Center
Sat 05:03:50 PM 34.7783 -107.4458 64° Northeast 371 427 17,000 -1,180 Descending Albuquerque Center
Sat 05:04:13 PM 34.7986 -107.3994 62° Northeast 363 418 16,500 -1,258 Descending Albuquerque Center
Sat 05:04:52 PM 34.8092 -107.3319 79° East 371 427 15,700 -1,700 Descending Albuquerque Center
Sat 05:05:13 PM 34.8167 -107.2789 80° East 360 414 14,800 -1,935 Descending Albuquerque Center
Sat 05:05:54 PM 34.8233 -107.2144 83° East 355 409 13,700 -1,672 Descending Albuquerque Center
Sat 05:06:14 PM 34.8292 -107.1647 82° East 342 394 13,100 -2,032 Descending Albuquerque Center
Sat 05:06:56 PM 34.8358 -107.1058 82° East 337 388 11,600 -2,656 Descending Albuquerque Center
Sat 05:07:15 PM 34.8428 -107.0578 80° East 319 367 10,400 -1,967 Descending Albuquerque Center
Sat 05:07:57 PM 34.8478 -106.9997 84° East 328 377 9,600 -1,273 Descending Albuquerque Center
Sat 05:08:21 PM 34.8553 -106.9436 81° East 282 325 9,000 -581 Descending Albuquerque Center
Sat 05:08:59 PM 34.8617 -106.8903 82° East 295 339 9,000  Level Albuquerque Center
Sat 05:09:28 PM 34.8672 -106.8525 80° East 237 273 9,000 -97 Level Albuquerque Center
Sat 05:10:01 PM 34.8842 -106.8206 57° Northeast 257 296 8,900 -590 Descending Albuquerque Center
Sat 05:10:29 PM 34.9014 -106.7919 54° Northeast 204 235 8,400 -885 Descending Albuquerque Center
Sat 05:11:02 PM 34.9136 -106.7628 63° Northeast 222 255 8,000 -600 Descending Albuquerque Center
Sat 05:11:29 PM 34.9308 -106.7406 47° Northeast 179 206 7,800 -677 Descending Albuquerque Center
Sat 05:12:04 PM 34.9478 -106.7178 48° Northeast 197 227 7,300 -982 Descending Albuquerque Center
Sat 05:12:24 PM 34.9625 -106.7014 42° Northeast 173 199 6,900 -871 Descending Albuquerque Center
Sat 05:13:06 PM 34.9833 -106.6767 44° Northeast 185 213 6,400 -1,000 Descending Albuquerque Center
Sat 05:13:24 PM 34.9978 -106.6586 46° Northeast 178 205 5,900 -1,082 Descending Albuquerque Center
Sat 05:14:07 PM 35.0236 -106.6275 45° Northeast 177 204 5,300 -837 Descending Albuquerque Center
Sat 05:16:00 PM 35.0333 -106.6000 39° Northeast  Level FlightAware Approximate

Login

Don't have an account? Register now (free) for customized features, flight alerts, and more!